Terminal Aerodrome Forecast
Issued by NWS

Home | Current Version | Previous Version | Text Only | Print | Product List | Glossary On
Versions: 1 2 3 4 5 6 7 8 9 10 11 12 13 14 15 16
514
FTUS45 KFGZ 221727
TAFPRC
TAF
KPRC 221727Z 2218/2318 35007KT P6SM SCT080 SCT100
      TEMPO 2219/2223 VRB10G20KT 4SM TSRA BKN060CB
     FM230100 VRB05KT P6SM SCT080 BKN100=

USA.gov is the U.S. government's official web portal to all federal, state and local government web resources and services.